Time;durP1;ratioP1;P1;durP2;ratioP2;P2;SDS_P1;SDS_P2;PMS_P1;PMS_P2;Temp;Humidity;BMP_temperature;BMP_pressure;BME280_temperature;BME280_humidity;BME280_pressure;Samples;Min_cycle;Max_cycle;Signal;HPM_P1;HPM_P2
2022/05/04 00:01:59;;;;;;;4.05;2.70;;;14.50;99.90;;;;;;1914105;75;21039;-76
2022/05/04 00:07:51;;;;;;;4.62;2.27;;;14.50;99.90;;;;;;1976362;72;22265;-76
2022/05/04 00:11:01;;;;;;;3.58;2.37;;;14.50;99.90;;;;;;1917794;75;21043;-77
2022/05/04 00:14:11;;;;;;;6.55;2.40;;;14.50;99.90;;;;;;1917809;75;21109;-77
2022/05/04 00:17:03;;;;;;;2.35;2.15;;;14.60;99.90;;;;;;1925544;73;21561;-77
2022/05/04 00:22:53;;;;;;;3.12;2.12;;;14.60;99.90;;;;;;1948822;72;22091;-76
2022/05/04 00:26:03;;;;;;;2.87;2.22;;;14.50;99.90;;;;;;1940345;73;21087;-78
2022/05/04 00:29:12;;;;;;;2.47;2.00;;;14.50;99.90;;;;;;1919693;73;21042;-77
2022/05/04 00:32:04;;;;;;;2.20;2.00;;;14.40;99.90;;;;;;1929484;73;21116;-77
2022/05/04 00:35:14;;;;;;;3.17;2.40;;;14.40;99.90;;;;;;1921855;73;21100;-77
2022/05/04 00:38:06;;;;;;;3.22;2.08;;;14.50;99.90;;;;;;1917749;75;21161;-76
2022/05/04 00:40:57;;;;;;;2.65;1.62;;;14.50;99.90;;;;;;1920936;73;21215;-76
2022/05/04 00:43:54;;;;;;;4.03;2.05;;;14.50;99.90;;;;;;1917788;75;21514;-77
2022/05/04 00:49:24;;;;;;;2.47;1.92;;;14.40;99.90;;;;;;1941601;72;22600;-76
2022/05/04 00:55:14;;;;;;;5.87;2.25;;;14.50;99.90;;;;;;1954866;72;22218;-76
2022/05/04 01:01:51;;;;;;;4.00;2.15;;;14.50;99.90;;;;;;1900745;75;21101;-77
2022/05/04 01:04:43;;;;;;;5.17;1.98;;;14.60;99.90;;;;;;1904660;75;21051;-77
2022/05/04 01:10:31;;;;;;;2.47;2.17;;;14.50;99.90;;;;;;1952686;72;22257;-76
2022/05/04 01:13:40;;;;;;;4.50;1.85;;;14.50;99.90;;;;;;1896025;75;21138;-76
2022/05/04 01:16:51;;;;;;;2.10;1.90;;;14.40;99.90;;;;;;1915351;75;21478;-77
2022/05/04 01:19:43;;;;;;;2.67;1.87;;;14.30;99.90;;;;;;1916343;75;21110;-76
2022/05/04 01:22:52;;;;;;;4.65;2.00;;;14.30;99.90;;;;;;1910295;75;21138;-77
2022/05/04 01:25:44;;;;;;;2.25;2.00;;;14.30;99.90;;;;;;1916489;75;21129;-76
2022/05/04 01:28:36;;;;;;;3.17;1.90;;;14.40;99.90;;;;;;1900301;75;21082;-76
2022/05/04 01:31:27;;;;;;;2.12;1.87;;;14.40;99.90;;;;;;1916336;75;21106;-76
2022/05/04 01:34:20;;;;;;;4.03;2.05;;;14.40;99.90;;;;;;1912201;75;21561;-76
2022/05/04 01:37:12;;;;;;;2.90;2.00;;;14.40;99.90;;;;;;1917002;75;21059;-76
2022/05/04 01:40:03;;;;;;;3.02;2.02;;;14.40;99.90;;;;;;1902387;75;21147;-76
2022/05/04 01:42:54;;;;;;;3.40;1.87;;;14.40;99.90;;;;;;1897623;75;21106;-76
2022/05/04 01:45:46;;;;;;;2.35;2.12;;;14.50;99.90;;;;;;1917085;75;21056;-77
2022/05/04 01:48:37;;;;;;;1.90;1.70;;;14.40;99.90;;;;;;1917141;75;21102;-77
2022/05/04 01:51:28;;;;;;;1.87;1.75;;;14.40;99.90;;;;;;1916915;75;21080;-77
2022/05/04 01:54:20;;;;;;;4.45;2.20;;;14.30;99.90;;;;;;1898586;75;21055;-77
2022/05/04 01:57:12;;;;;;;2.52;2.00;;;14.20;99.90;;;;;;1899165;75;21063;-76
2022/05/04 02:00:04;;;;;;;3.35;1.90;;;14.30;99.90;;;;;;1912906;75;21106;-76
2022/05/04 02:02:59;;;;;;;2.80;2.12;;;14.30;99.90;;;;;;1908069;75;21129;-77
2022/05/04 02:05:50;;;;;;;2.20;1.92;;;14.30;99.90;;;;;;1891493;75;21083;-77
2022/05/04 02:08:41;;;;;;;3.50;2.20;;;14.30;99.90;;;;;;1896000;75;21043;-78
2022/05/04 02:11:35;;;;;;;3.35;2.10;;;14.30;99.90;;;;;;1904768;75;21180;-78
2022/05/04 02:14:26;;;;;;;3.95;2.30;;;14.30;99.90;;;;;;1916556;75;21055;-77
2022/05/04 02:19:56;;;;;;;3.62;2.33;;;14.30;99.90;;;;;;1964866;72;22143;-76
2022/05/04 02:23:06;;;;;;;2.62;2.40;;;14.30;99.90;;;;;;1940231;73;21062;-79
2022/05/04 02:28:55;;;;;;;4.53;2.17;;;14.40;99.90;;;;;;1952084;72;22614;-76
2022/05/04 02:32:06;;;;;;;2.67;2.25;;;14.40;99.90;;;;;;1920759;73;21047;-76
2022/05/04 02:41:04;;;;;;;2.42;1.92;;;14.20;99.90;;;;;;1936527;72;22287;-76
2022/05/04 02:44:14;;;;;;;5.20;2.08;;;14.30;99.90;;;;;;1915951;75;21538;-78
2022/05/04 02:47:24;;;;;;;2.22;1.90;;;14.30;99.90;;;;;;1908324;75;21046;-78
2022/05/04 02:50:15;;;;;;;3.77;2.40;;;14.30;99.90;;;;;;1917482;75;21057;-78
2022/05/04 02:53:25;;;;;;;2.40;1.60;;;14.30;99.90;;;;;;1917618;75;21133;-78
2022/05/04 02:58:55;;;;;;;2.00;1.60;;;14.30;99.90;;;;;;1931810;72;22241;-76
2022/05/04 03:05:33;;;;;;;4.72;2.00;;;14.30;99.90;;;;;;1897420;75;21643;-78
2022/05/04 03:08:24;;;;;;;6.30;1.90;;;14.20;99.90;;;;;;1910739;75;21137;-78
2022/05/04 03:14:13;;;;;;;1.95;1.85;;;14.10;99.90;;;;;;1953997;72;22083;-76
2022/05/04 03:20:04;;;;;;;7.35;1.92;;;14.20;99.90;;;;;;1956444;72;22216;-76
2022/05/04 03:23:14;;;;;;;2.55;1.87;;;14.20;99.90;;;;;;1917705;75;21034;-78
2022/05/04 03:26:24;;;;;;;3.27;2.15;;;14.20;99.90;;;;;;1912260;75;21223;-77
2022/05/04 03:29:17;;;;;;;2.30;2.10;;;14.10;99.90;;;;;;1917621;75;21100;-78
2022/05/04 03:35:08;;;;;;;3.22;2.05;;;14.10;99.90;;;;;;1958348;72;22213;-76
2022/05/04 03:41:01;;;;;;;2.58;2.02;;;14.10;99.90;;;;;;1942612;72;22139;-76
2022/05/04 03:44:10;;;;;;;3.30;2.30;;;14.10;99.90;;;;;;1917792;75;21055;-77
2022/05/04 03:49:58;;;;;;;2.27;1.92;;;14.00;99.90;;;;;;1954144;72;22118;-76
2022/05/04 03:53:08;;;;;;;2.35;1.90;;;14.00;99.90;;;;;;1917660;75;21494;-79
2022/05/04 03:58:56;;;;;;;3.02;2.10;;;14.00;99.90;;;;;;1942034;72;22109;-76
2022/05/04 04:02:07;;;;;;;2.37;2.17;;;14.00;99.90;;;;;;1918597;74;21186;-76
2022/05/04 04:07:55;;;;;;;2.45;2.25;;;14.00;99.90;;;;;;1975865;72;22292;-76
2022/05/04 04:11:04;;;;;;;3.40;2.27;;;13.90;99.90;;;;;;1917868;75;21046;-77
2022/05/04 04:14:14;;;;;;;3.12;2.22;;;13.90;99.90;;;;;;1917875;75;21168;-78
2022/05/04 04:17:06;;;;;;;2.70;2.50;;;13.90;99.90;;;;;;1917623;75;21145;-77
2022/05/04 04:22:54;;;;;;;2.65;2.42;;;14.00;99.90;;;;;;1948968;72;22546;-77
2022/05/04 04:26:05;;;;;;;5.42;2.83;;;14.00;99.90;;;;;;1906796;75;21192;-80
2022/05/04 04:29:15;;;;;;;3.60;2.72;;;14.00;99.90;;;;;;1907139;75;21039;-78
2022/05/04 04:34:49;;;;;;;2.60;2.40;;;14.00;99.90;;;;;;1943873;72;22216;-79
2022/05/04 04:40:39;;;;;;;5.03;2.72;;;14.00;99.90;;;;;;1951527;72;22139;-77
2022/05/04 04:43:49;;;;;;;3.62;2.87;;;14.00;99.90;;;;;;1897048;74;21050;-78
2022/05/04 04:46:58;;;;;;;4.33;3.02;;;14.00;99.90;;;;;;1895719;75;21059;-77
2022/05/04 04:49:50;;;;;;;4.97;2.90;;;14.00;99.90;;;;;;1898932;75;21102;-78
2022/05/04 04:53:00;;;;;;;2.90;2.60;;;14.00;99.90;;;;;;1902647;75;21617;-77
2022/05/04 04:55:52;;;;;;;3.62;3.22;;;13.90;99.90;;;;;;1887906;75;21165;-77
2022/05/04 04:58:43;;;;;;;3.92;3.55;;;13.90;99.90;;;;;;1907157;75;21059;-78
2022/05/04 05:01:34;;;;;;;3.37;3.08;;;14.00;99.90;;;;;;1908520;75;21134;-78
2022/05/04 05:04:26;;;;;;;3.30;3.00;;;14.00;99.90;;;;;;1917531;75;21094;-77
2022/05/04 05:09:57;;;;;;;3.50;2.83;;;14.00;99.90;;;;;;1929489;72;22257;-76
2022/05/04 05:13:08;;;;;;;4.95;3.33;;;14.00;99.90;;;;;;1906783;75;21047;-76
2022/05/04 05:16:17;;;;;;;5.28;2.80;;;14.10;99.90;;;;;;1897319;75;21609;-76
2022/05/04 05:19:09;;;;;;;3.67;3.12;;;14.10;99.90;;;;;;1884725;76;21537;-76
2022/05/04 05:22:19;;;;;;;7.20;3.42;;;14.00;99.90;;;;;;1903825;75;21102;-77
2022/05/04 05:27:50;;;;;;;3.50;3.12;;;14.20;99.90;;;;;;1948324;72;22275;-86
2022/05/04 05:31:01;;;;;;;5.05;3.02;;;14.20;99.90;;;;;;1897708;75;21096;-85
2022/05/04 05:34:11;;;;;;;3.98;2.90;;;14.20;99.90;;;;;;1904830;75;21154;-86
2022/05/04 05:37:03;;;;;;;3.33;3.00;;;14.10;99.90;;;;;;1895791;75;21170;-84
2022/05/04 05:42:55;;;;;;;4.55;2.75;;;14.10;99.90;;;;;;1950500;72;22111;-83
2022/05/04 05:48:49;;;;;;;5.75;3.10;;;14.10;99.90;;;;;;1951943;72;22261;-84
2022/05/04 05:51:59;;;;;;;4.12;2.87;;;14.10;99.90;;;;;;1898549;75;21149;-84
2022/05/04 05:57:50;;;;;;;3.83;3.02;;;14.20;99.90;;;;;;1954610;72;22240;-83
2022/05/04 06:01:00;;;;;;;3.67;3.17;;;14.20;99.90;;;;;;1901624;75;21080;-83
2022/05/04 06:04:10;;;;;;;5.28;2.62;;;14.20;99.90;;;;;;1909762;75;21094;-83
2022/05/04 06:07:02;;;;;;;2.83;2.62;;;14.30;99.90;;;;;;1916265;75;21079;-83
2022/05/04 06:10:12;;;;;;;3.83;3.17;;;14.30;99.90;;;;;;1906905;75;21172;-83
2022/05/04 06:13:04;;;;;;;6.10;3.17;;;14.40;99.90;;;;;;1916433;75;21048;-83
2022/05/04 06:18:34;;;;;;;4.87;2.95;;;14.50;99.90;;;;;;1958037;72;22147;-82
2022/05/04 06:21:44;;;;;;;3.45;3.08;;;14.50;99.90;;;;;;1893928;75;21165;-82
2022/05/04 06:24:56;;;;;;;4.28;2.90;;;14.50;99.90;;;;;;1906574;75;21106;-82
2022/05/04 06:27:48;;;;;;;5.25;3.45;;;14.50;99.90;;;;;;1911696;75;21113;-84
2022/05/04 06:37:05;;;;;;;6.83;4.00;;;14.70;99.90;;;;;;1931534;73;21098;-83
2022/05/04 06:40:15;;;;;;;5.80;3.80;;;14.80;99.90;;;;;;1916899;74;21564;-83
2022/05/04 06:43:08;;;;;;;3.87;3.58;;;14.90;99.90;;;;;;1921860;74;21080;-83
2022/05/04 06:46:18;;;;;;;4.53;3.85;;;15.00;99.90;;;;;;1905080;75;21584;-83
2022/05/04 06:49:11;;;;;;;6.35;4.30;;;15.10;99.90;;;;;;1905002;75;21056;-83
2022/05/04 06:52:02;;;;;;;5.53;3.83;;;15.10;99.90;;;;;;1923111;74;21051;-83
2022/05/04 06:54:54;;;;;;;3.95;3.47;;;15.20;99.90;;;;;;1915651;74;21072;-83
2022/05/04 06:57:46;;;;;;;9.33;3.85;;;15.30;99.90;;;;;;1905300;75;21230;-84
2022/05/04 07:00:37;;;;;;;6.03;4.47;;;15.30;99.90;;;;;;1911701;74;21072;-83
2022/05/04 07:03:29;;;;;;;5.62;3.70;;;15.30;99.90;;;;;;1934222;74;21107;-83
2022/05/04 07:09:09;;;;;;;5.45;4.25;;;15.40;99.90;;;;;;1955335;72;22179;-83
2022/05/04 07:12:18;;;;;;;4.58;3.70;;;15.50;99.90;;;;;;1900450;75;21117;-83
2022/05/04 07:18:16;;;;;;;5.33;3.80;;;15.60;99.90;;;;;;1976356;72;22170;-82
2022/05/04 07:21:27;;;;;;;4.72;4.12;;;15.60;99.90;;;;;;1929542;73;21051;-83
2022/05/04 07:24:37;;;;;;;5.92;4.15;;;15.60;99.90;;;;;;1943015;73;21102;-82
2022/05/04 07:27:30;;;;;;;4.70;4.30;;;15.70;99.90;;;;;;1919532;73;21127;-82
2022/05/04 07:30:40;;;;;;;5.37;4.05;;;15.70;99.90;;;;;;1942915;73;21144;-84
2022/05/04 07:33:32;;;;;;;6.87;4.15;;;15.80;99.90;;;;;;1917580;75;21161;-83
2022/05/04 07:36:25;;;;;;;4.55;3.72;;;15.80;99.90;;;;;;1930598;73;21179;-82
2022/05/04 07:42:27;;;;;;;4.83;4.22;;;15.80;99.90;;;;;;1917318;75;21578;-83
2022/05/04 07:45:19;;;;;;;4.65;4.22;;;15.90;99.90;;;;;;1917115;75;21111;-83
2022/05/04 07:48:10;;;;;;;6.75;4.00;;;16.00;99.90;;;;;;1917687;75;21051;-83
2022/05/04 07:53:41;;;;;;;8.60;5.60;;;16.10;99.90;;;;;;1955020;72;22132;-83
2022/05/04 07:56:52;;;;;;;6.03;3.70;;;16.20;99.90;;;;;;1918401;73;21076;-83
2022/05/04 08:06:39;;;;;;;5.15;3.35;;;16.40;99.90;;;;;;1933172;73;21658;-82
2022/05/04 08:09:34;;;;;;;5.15;2.90;;;16.40;99.90;;;;;;1896230;73;21128;-82
2022/05/04 08:12:26;;;;;;;4.35;2.90;;;16.50;99.90;;;;;;1937415;73;21634;-82
2022/05/04 08:15:18;;;;;;;8.50;2.83;;;16.60;99.90;;;;;;1911738;73;21109;-82
2022/05/04 08:18:09;;;;;;;4.30;3.02;;;16.70;99.90;;;;;;1914508;75;21124;-82
2022/05/04 08:21:01;;;;;;;4.67;2.50;;;16.90;99.90;;;;;;1904777;74;21048;-82
2022/05/04 08:23:53;;;;;;;3.95;2.70;;;17.00;99.90;;;;;;1929514;73;21181;-82
2022/05/04 08:26:46;;;;;;;3.00;2.25;;;17.00;99.90;;;;;;1922791;73;21542;-82
2022/05/04 08:29:38;;;;;;;2.30;1.90;;;17.10;99.90;;;;;;1958264;73;21091;-82
2022/05/04 08:35:18;;;;;;;4.65;2.90;;;17.30;99.90;;;;;;1940230;72;22094;-82
2022/05/04 08:38:28;;;;;;;4.80;2.40;;;17.40;99.90;;;;;;1903203;75;21056;-83
2022/05/04 08:44:19;;;;;;;3.42;2.20;;;17.60;99.90;;;;;;1954845;72;22266;-84
2022/05/04 08:47:32;;;;;;;1.87;1.65;;;17.50;99.90;;;;;;1913990;73;21087;-84
2022/05/04 08:53:21;;;;;;;2.27;1.30;;;17.90;99.90;;;;;;1951921;72;22620;-81
2022/05/04 08:59:16;;;;;;;1.55;1.30;;;18.20;99.90;;;;;;1940540;72;22178;-82
2022/05/04 09:02:25;;;;;;;1.65;1.35;;;18.40;99.90;;;;;;1914463;75;21059;-82
2022/05/04 09:08:16;;;;;;;3.00;1.55;;;18.70;99.90;;;;;;1970524;72;22141;-81
2022/05/04 09:14:10;;;;;;;2.15;1.52;;;19.00;99.90;;;;;;1954573;72;22253;-81
2022/05/04 09:17:21;;;;;;;3.15;1.45;;;19.20;99.90;;;;;;1918337;74;21099;-84
2022/05/04 09:20:47;;;;;;;1.32;1.20;;;19.30;99.90;;;;;;1902457;75;21093;-81
2022/05/04 09:23:40;;;;;;;1.50;1.40;;;19.30;99.90;;;;;;1916656;75;21090;-81
2022/05/04 09:29:42;;;;;;;1.95;1.47;;;19.50;99.90;;;;;;1942043;72;22082;-81
2022/05/04 09:35:33;;;;;;;1.98;1.47;;;19.90;99.90;;;;;;1950964;72;22687;-81
2022/05/04 09:45:21;;;;;;;3.58;1.57;;;20.20;99.90;;;;;;1915792;75;20202;-81
2022/05/04 09:50:54;;;;;;;3.47;1.57;;;20.00;99.90;;;;;;1948319;72;22272;-81
2022/05/04 09:54:17;;;;;;;1.80;1.57;;;20.00;99.90;;;;;;1894401;75;21104;-82
2022/05/04 09:57:27;;;;;;;1.70;1.60;;;20.00;99.90;;;;;;1914272;75;21043;-82
2022/05/04 10:00:23;;;;;;;3.27;1.42;;;19.90;99.90;;;;;;1895775;75;21537;-81
2022/05/04 10:03:35;;;;;;;1.92;1.65;;;19.90;99.90;;;;;;1888166;75;21160;-81
2022/05/04 10:06:27;;;;;;;1.90;1.62;;;19.90;99.90;;;;;;1906819;75;21124;-81
2022/05/04 10:09:19;;;;;;;2.12;1.10;;;20.00;99.90;;;;;;1903907;75;21056;-81
2022/05/04 10:12:13;;;;;;;1.62;1.12;;;20.00;99.90;;;;;;1896423;75;21070;-81
2022/05/04 10:15:07;;;;;;;2.10;0.98;;;20.20;99.90;;;;;;1906895;75;21117;-83
2022/05/04 10:18:04;;;;;;;2.20;1.20;;;20.40;99.90;;;;;;1912051;74;21847;-82
2022/05/04 10:21:01;;;;;;;1.60;1.30;;;20.80;99.90;;;;;;1896983;74;21593;-82
2022/05/04 10:26:45;;;;;;;1.10;1.00;;;20.90;99.90;;;;;;1958311;72;22108;-81
2022/05/04 10:33:34;;;;;;;1.40;1.30;;;20.80;99.90;;;;;;1902567;75;21539;-81
2022/05/04 10:39:08;;;;;;;2.15;1.27;;;20.60;99.90;;;;;;1928845;72;22165;-78
2022/05/04 10:59:04;;;;;;;2.20;1.57;;;21.00;99.90;;;;;;1958123;72;22238;-78
2022/05/04 11:05:04;;;;;;;2.00;1.40;;;21.10;99.90;;;;;;1952508;72;22262;-78
2022/05/04 11:08:26;;;;;;;3.22;1.50;;;21.10;99.90;;;;;;1917344;75;21055;-78
2022/05/04 11:11:37;;;;;;;2.22;1.70;;;21.10;99.90;;;;;;1889530;75;21201;-78
2022/05/04 11:14:29;;;;;;;1.82;1.62;;;21.20;99.90;;;;;;1897494;75;21119;-78
2022/05/04 11:17:39;;;;;;;1.75;1.47;;;21.20;99.90;;;;;;1884754;75;21133;-78
2022/05/04 11:20:31;;;;;;;2.00;1.50;;;21.30;99.90;;;;;;1884704;76;21143;-78
2022/05/04 11:23:26;;;;;;;2.05;1.10;;;21.40;99.90;;;;;;1896169;75;21454;-78
2022/05/04 11:26:23;;;;;;;4.37;3.98;;;21.20;99.90;;;;;;1895217;75;21105;-78
2022/05/04 11:29:18;;;;;;;5.40;3.05;;;21.20;99.90;;;;;;1895571;75;21558;-78
2022/05/04 11:32:10;;;;;;;2.90;2.60;;;21.30;99.90;;;;;;1912646;75;21051;-78
2022/05/04 11:35:02;;;;;;;4.42;2.52;;;21.40;99.90;;;;;;1900840;75;21088;-78
2022/05/04 11:37:54;;;;;;;2.40;1.40;;;21.60;99.90;;;;;;1884646;76;21058;-78
2022/05/04 11:43:27;;;;;;;2.72;1.45;;;21.60;99.90;;;;;;1958309;72;22311;-78
2022/05/04 11:49:19;;;;;;;2.70;1.35;;;22.00;99.90;;;;;;1955775;72;22102;-78
2022/05/04 11:52:28;;;;;;;1.72;1.30;;;22.10;99.90;;;;;;1884744;76;21168;-78
2022/05/04 11:55:38;;;;;;;1.80;1.30;;;21.80;99.90;;;;;;1894638;75;21549;-77
2022/05/04 11:58:31;;;;;;;4.45;1.50;;;22.00;99.90;;;;;;1906063;75;21132;-78
2022/05/04 12:01:42;;;;;;;2.95;1.60;;;22.00;99.90;;;;;;1913554;75;21123;-77
2022/05/04 12:04:34;;;;;;;2.10;1.52;;;22.10;99.90;;;;;;1905802;75;21054;-78
2022/05/04 12:07:26;;;;;;;2.33;1.50;;;22.00;99.90;;;;;;1897949;75;21072;-77
2022/05/04 12:12:59;;;;;;;4.47;1.60;;;22.00;99.90;;;;;;1950966;72;22217;-78
2022/05/04 12:16:11;;;;;;;1.98;1.30;;;22.00;99.90;;;;;;1906427;75;21172;-79
2022/05/04 12:19:21;;;;;;;1.90;1.70;;;22.00;99.90;;;;;;1884738;75;21048;-78
2022/05/04 12:22:15;;;;;;;2.17;1.52;;;22.30;99.90;;;;;;1903156;75;21137;-78
2022/05/04 12:28:14;;;;;;;2.17;1.30;;;22.70;99.90;;;;;;1963451;72;22189;-78
2022/05/04 12:34:55;;;;;;;3.30;1.27;;;22.60;99.90;;;;;;1925611;74;21147;-77
2022/05/04 12:37:52;;;;;;;2.80;1.45;;;22.60;99.90;;;;;;1927884;73;21080;-77
2022/05/04 12:41:03;;;;;;;2.55;1.57;;;22.50;99.90;;;;;;1919009;73;21054;-79
2022/05/04 12:43:54;;;;;;;2.15;1.37;;;22.50;99.90;;;;;;1917656;73;21192;-78
2022/05/04 12:46:53;;;;;;;3.98;1.45;;;22.60;99.90;;;;;;1917395;75;21103;-78
2022/05/04 12:49:47;;;;;;;1.62;1.22;;;22.60;99.90;;;;;;1917660;75;21347;-78
2022/05/04 12:52:39;;;;;;;3.62;1.30;;;22.60;99.90;;;;;;1930978;73;21124;-78
2022/05/04 12:58:41;;;;;;;1.90;1.00;;;23.10;99.90;;;;;;1940764;73;21236;-78
2022/05/04 13:01:36;;;;;;;1.35;0.85;;;23.50;99.90;;;;;;1940392;73;21106;-78
2022/05/04 13:04:27;;;;;;;0.80;0.60;;;23.70;99.90;;;;;;1937121;73;21072;-79
2022/05/04 13:07:20;;;;;;;1.00;0.55;;;23.70;99.70;;;;;;1936711;73;21523;-78
2022/05/04 13:10:12;;;;;;;0.70;0.55;;;23.90;97.80;;;;;;1917409;75;21055;-78
2022/05/04 13:13:05;;;;;;;0.50;0.50;;;24.00;97.40;;;;;;1917610;75;21649;-78
2022/05/04 13:15:57;;;;;;;1.85;0.70;;;24.20;96.50;;;;;;1917574;75;21527;-77
2022/05/04 13:18:49;;;;;;;0.50;0.50;;;24.30;96.60;;;;;;1917691;75;21055;-78
2022/05/04 13:21:41;;;;;;;1.25;0.70;;;24.40;96.40;;;;;;1917419;75;21048;-78
2022/05/04 13:24:34;;;;;;;1.35;0.75;;;24.50;95.50;;;;;;1917571;75;21113;-77
2022/05/04 13:27:25;;;;;;;1.12;1.02;;;24.40;94.80;;;;;;1913799;75;21087;-78
2022/05/04 13:30:17;;;;;;;0.82;0.70;;;24.30;93.50;;;;;;1905289;75;21635;-78
2022/05/04 13:33:10;;;;;;;0.53;0.53;;;24.50;92.80;;;;;;1905189;75;21060;-78
2022/05/04 13:36:03;;;;;;;0.60;0.60;;;24.70;93.40;;;;;;1905317;75;21102;-77
2022/05/04 13:38:54;;;;;;;0.78;0.70;;;25.00;93.70;;;;;;1917165;75;21059;-77
2022/05/04 13:41:47;;;;;;;0.72;0.70;;;25.10;92.60;;;;;;1916944;75;21059;-77
2022/05/04 13:44:39;;;;;;;1.45;1.00;;;25.10;92.20;;;;;;1916903;75;21110;-77
2022/05/04 13:47:31;;;;;;;1.27;1.15;;;25.10;92.30;;;;;;1917022;75;21076;-77
2022/05/04 13:53:32;;;;;;;1.25;0.90;;;24.40;94.20;;;;;;1939589;73;21058;-77
2022/05/04 13:56:24;;;;;;;1.50;1.00;;;24.00;94.90;;;;;;1936937;73;21179;-77
2022/05/04 13:59:16;;;;;;;1.02;0.80;;;23.80;94.80;;;;;;1923334;74;21146;-77
2022/05/04 14:02:08;;;;;;;2.00;1.02;;;23.70;94.90;;;;;;1916885;75;21251;-77
2022/05/04 14:04:59;;;;;;;1.50;0.90;;;23.70;94.30;;;;;;1908685;74;21058;-77
2022/05/04 14:07:52;;;;;;;1.65;0.90;;;23.60;94.60;;;;;;1916753;74;21556;-77
2022/05/04 14:10:46;;;;;;;3.02;1.12;;;23.80;94.70;;;;;;1920789;74;21047;-77
2022/05/04 14:13:36;;;;;;;1.80;1.00;;;24.20;94.40;;;;;;1915513;74;21214;-76
2022/05/04 14:16:28;;;;;;;3.20;1.12;;;24.10;94.80;;;;;;1927949;73;21172;-77
2022/05/04 14:19:20;;;;;;;2.87;1.10;;;23.70;97.00;;;;;;1915301;74;21083;-77
2022/05/04 14:22:12;;;;;;;1.67;1.20;;;23.60;97.40;;;;;;1904520;75;21059;-77
2022/05/04 14:25:04;;;;;;;1.40;1.30;;;23.30;98.60;;;;;;1916903;75;21152;-78
2022/05/04 14:27:57;;;;;;;2.35;1.05;;;23.40;98.60;;;;;;1925407;73;21135;-77
2022/05/04 14:30:49;;;;;;;2.08;1.00;;;23.30;99.30;;;;;;1935182;73;21158;-77
2022/05/04 14:33:41;;;;;;;1.90;1.25;;;23.40;98.70;;;;;;1926694;74;21059;-77
2022/05/04 14:36:32;;;;;;;1.32;1.00;;;24.10;97.60;;;;;;1926417;74;21119;-77
2022/05/04 14:39:24;;;;;;;2.72;1.10;;;24.70;95.50;;;;;;1936371;73;21437;-77
2022/05/04 14:42:15;;;;;;;2.47;1.25;;;24.50;95.50;;;;;;1937506;73;21137;-77
2022/05/04 14:45:09;;;;;;;1.10;0.90;;;24.80;94.00;;;;;;1960524;73;21055;-77
2022/05/04 14:48:01;;;;;;;1.40;1.05;;;24.50;94.10;;;;;;1960649;73;21079;-77
2022/05/04 14:50:53;;;;;;;1.77;1.30;;;23.70;96.30;;;;;;1926516;74;21043;-77
2022/05/04 14:53:50;;;;;;;1.72;1.00;;;23.00;97.50;;;;;;1926406;74;21480;-77
2022/05/04 14:56:37;;;;;;;5.25;1.72;;;22.90;97.80;;;;;;1926569;74;21055;-77
2022/05/04 14:59:30;;;;;;;1.80;1.42;;;22.80;99.00;;;;;;1926544;74;21176;-78
2022/05/04 15:02:22;;;;;;;1.55;1.15;;;24.20;98.30;;;;;;1939685;73;21157;-77
2022/05/04 15:05:13;;;;;;;1.82;1.40;;;25.50;96.30;;;;;;1929970;73;21139;-78
2022/05/04 15:08:06;;;;;;;2.30;1.27;;;26.30;93.00;;;;;;1928079;73;21595;-78
2022/05/04 15:10:59;;;;;;;4.67;1.32;;;26.70;92.40;;;;;;1941513;73;21234;-77
2022/05/04 15:13:49;;;;;;;1.65;1.00;;;26.90;91.80;;;;;;1926550;74;21160;-78
2022/05/04 15:16:41;;;;;;;2.52;1.25;;;26.10;92.20;;;;;;1926365;74;21628;-77
2022/05/04 15:19:34;;;;;;;1.67;1.10;;;25.60;92.80;;;;;;1926384;74;21101;-77
2022/05/04 15:22:25;;;;;;;2.00;1.25;;;24.80;93.80;;;;;;1926360;74;21062;-77
2022/05/04 15:25:17;;;;;;;1.75;1.30;;;24.30;94.80;;;;;;1926539;74;21086;-77
2022/05/04 15:28:09;;;;;;;3.15;1.40;;;23.90;96.50;;;;;;1926439;74;21168;-77
2022/05/04 15:31:04;;;;;;;2.20;1.30;;;23.60;98.10;;;;;;1926490;74;21139;-77
2022/05/04 15:33:55;;;;;;;1.95;0.72;;;23.30;98.70;;;;;;1927745;73;21050;-77
2022/05/04 15:36:47;;;;;;;1.57;1.10;;;23.10;97.70;;;;;;1941458;73;21066;-77
2022/05/04 15:39:39;;;;;;;1.27;0.98;;;22.90;97.60;;;;;;1926589;74;21147;-77
2022/05/04 15:42:30;;;;;;;3.05;1.10;;;22.70;98.10;;;;;;1926607;74;21139;-77
2022/05/04 15:45:22;;;;;;;1.60;1.00;;;22.70;98.10;;;;;;1926483;74;21058;-77
2022/05/04 15:48:13;;;;;;;1.05;0.75;;;22.50;98.00;;;;;;1926603;74;21115;-77
2022/05/04 15:51:05;;;;;;;2.45;1.10;;;22.30;98.40;;;;;;1941007;73;21204;-77
2022/05/04 15:53:57;;;;;;;1.50;0.80;;;22.10;99.10;;;;;;1928260;73;21172;-77
2022/05/04 15:56:51;;;;;;;2.08;0.88;;;22.00;99.60;;;;;;1926633;74;21490;-77
2022/05/04 15:59:43;;;;;;;1.57;1.00;;;21.80;99.90;;;;;;1926522;74;21046;-77
2022/05/04 16:05:45;;;;;;;1.75;0.90;;;21.70;99.90;;;;;;1925927;74;21146;-77
2022/05/04 16:08:37;;;;;;;1.98;1.17;;;21.50;99.90;;;;;;1949362;73;21097;-77
2022/05/04 16:11:28;;;;;;;1.80;1.00;;;21.30;99.90;;;;;;1926526;74;21066;-77
2022/05/04 16:14:20;;;;;;;4.80;1.90;;;21.10;99.90;;;;;;1926579;74;21540;-77
2022/05/04 16:23:33;;;;;;;2.70;1.15;;;20.10;99.90;;;;;;1926350;74;21166;-77
2022/05/04 16:26:24;;;;;;;1.95;1.40;;;20.00;99.90;;;;;;1926444;74;21168;-77
2022/05/04 16:29:17;;;;;;;1.27;1.10;;;19.90;99.90;;;;;;1926018;73;21067;-77
2022/05/04 16:32:09;;;;;;;3.37;1.50;;;20.00;99.90;;;;;;1890446;76;21106;-77
2022/05/04 16:35:01;;;;;;;3.85;1.60;;;19.90;99.90;;;;;;1891779;76;21094;-77
2022/05/04 16:37:54;;;;;;;4.62;2.22;;;19.90;99.90;;;;;;1891428;76;21069;-77
2022/05/04 16:40:47;;;;;;;3.08;2.15;;;19.70;99.90;;;;;;1891222;76;21132;-76
2022/05/04 16:43:38;;;;;;;5.35;2.40;;;19.30;99.90;;;;;;1891333;76;21080;-76
2022/05/04 16:46:30;;;;;;;2.70;1.70;;;18.90;99.90;;;;;;1908403;74;21161;-77
2022/05/04 16:49:22;;;;;;;2.60;1.10;;;18.30;99.90;;;;;;1832517;78;21601;-77
2022/05/04 16:52:14;;;;;;;4.62;1.20;;;17.90;99.90;;;;;;1881903;76;21188;-76
2022/05/04 16:55:10;;;;;;;2.92;1.12;;;17.20;99.90;;;;;;1884621;75;21063;-76
2022/05/04 16:58:01;;;;;;;1.67;0.78;;;16.80;99.90;;;;;;1893987;75;21066;-76
2022/05/04 17:00:53;;;;;;;1.67;0.70;;;16.90;99.90;;;;;;1848285;77;21102;-76
2022/05/04 17:03:46;;;;;;;1.60;0.80;;;16.70;99.90;;;;;;1891714;75;21136;-76
2022/05/04 17:06:38;;;;;;;4.50;0.75;;;16.60;99.90;;;;;;1908805;75;21743;-76
2022/05/04 17:09:29;;;;;;;1.20;0.60;;;16.40;99.90;;;;;;1881208;76;21071;-77
2022/05/04 17:12:21;;;;;;;3.80;0.80;;;16.30;99.90;;;;;;1882857;76;21162;-77
2022/05/04 17:15:13;;;;;;;2.02;0.98;;;16.10;99.90;;;;;;1857179;76;21185;-77
2022/05/04 17:18:05;;;;;;;0.80;0.80;;;16.00;99.90;;;;;;1886445;75;21070;-77
2022/05/04 17:20:58;;;;;;;1.10;1.00;;;15.90;99.90;;;;;;1884011;75;21074;-76
2022/05/04 17:23:49;;;;;;;2.55;1.02;;;15.80;99.90;;;;;;1895662;75;21095;-76
2022/05/04 17:26:42;;;;;;;1.30;1.00;;;15.70;99.90;;;;;;1882705;76;21670;-76
2022/05/04 17:29:34;;;;;;;2.87;1.50;;;15.60;99.90;;;;;;1882551;76;21166;-76
2022/05/04 17:38:54;;;;;;;2.92;1.80;;;15.80;99.90;;;;;;1928147;73;21501;-76
2022/05/04 17:41:46;;;;;;;4.97;1.40;;;15.90;99.90;;;;;;1840535;77;21119;-76
2022/05/04 17:44:37;;;;;;;5.95;2.47;;;15.90;99.90;;;;;;1850292;77;21573;-76
2022/05/04 17:47:28;;;;;;;5.37;2.15;;;16.00;99.90;;;;;;1854769;77;21074;-76
2022/05/04 17:50:20;;;;;;;5.33;2.47;;;16.00;99.90;;;;;;1847642;77;21085;-76
2022/05/04 17:53:12;;;;;;;3.30;1.30;;;16.00;99.90;;;;;;1837476;77;21080;-77
2022/05/04 17:56:05;;;;;;;3.65;1.10;;;15.90;99.90;;;;;;1836879;77;21143;-77
2022/05/04 17:58:57;;;;;;;3.40;1.20;;;15.70;99.90;;;;;;1852939;77;21073;-77
2022/05/04 18:04:57;;;;;;;2.67;1.35;;;15.30;99.90;;;;;;1855361;77;21108;-76
2022/05/04 18:07:48;;;;;;;2.33;1.15;;;15.30;99.90;;;;;;1854057;77;21076;-76
2022/05/04 18:10:40;;;;;;;4.40;1.52;;;15.20;99.90;;;;;;1852447;77;21541;-76
2022/05/04 18:13:32;;;;;;;5.20;1.70;;;15.20;99.90;;;;;;1851379;77;21168;-76
2022/05/04 18:16:24;;;;;;;2.83;1.60;;;15.30;99.90;;;;;;1853564;77;21112;-76
2022/05/04 18:19:16;;;;;;;2.65;1.35;;;15.30;99.90;;;;;;1850679;77;21153;-76
2022/05/04 18:22:07;;;;;;;5.50;1.98;;;15.40;99.90;;;;;;1837833;77;21170;-76
2022/05/04 18:24:59;;;;;;;5.83;2.08;;;15.40;99.90;;;;;;1852978;77;21077;-76
2022/05/04 18:27:50;;;;;;;4.22;2.60;;;15.40;99.90;;;;;;1848676;77;21106;-76
2022/05/04 18:30:43;;;;;;;5.70;2.80;;;15.50;99.90;;;;;;1850967;77;21531;-76
2022/05/04 18:33:34;;;;;;;5.80;2.70;;;15.60;99.90;;;;;;1852023;77;21143;-76
2022/05/04 18:36:34;;;;;;;3.12;2.30;;;15.60;99.90;;;;;;1852771;77;21186;-76
2022/05/04 18:39:25;;;;;;;7.55;4.12;;;15.50;99.90;;;;;;1847478;77;21112;-76
2022/05/04 18:42:16;;;;;;;5.75;2.80;;;15.40;99.90;;;;;;1855035;77;21193;-76
2022/05/04 18:45:10;;;;;;;3.67;2.50;;;15.40;99.90;;;;;;1855183;77;21097;-76
2022/05/04 18:48:03;;;;;;;5.45;1.92;;;15.50;99.90;;;;;;1857300;77;21076;-76